Time,TemperatureF,DewpointF,PressureIn,WindDirection,WindDirectionDegrees,WindSpeedMPH,WindSpeedGustMPH,Humidity,HourlyPrecipIn,Conditions,Clouds,dailyrainin,SoftwareType,DateUTC
2013-02-25 00:01:00,3.0,-1.0,-100.00,NE,45,2.0,7.0,85,0.00,,,-99.99,,2013-02-25 07:01:00,
2013-02-25 00:11:00,2.0,-2.0,-100.00,West,280,1.0,4.0,85,0.00,,,-99.99,,2013-02-25 07:11:00,
2013-02-25 00:21:00,2.0,-1.0,-100.00,NW,325,1.0,7.0,84,0.00,,,-99.99,,2013-02-25 07:21:00,
2013-02-25 00:32:00,2.0,-1.0,-100.00,NNE,25,0.0,3.0,84,0.00,,,-99.99,,2013-02-25 07:32:00,
2013-02-25 00:41:00,2.0,-2.0,-100.00,NE,40,1.0,7.0,84,0.00,,,-99.99,,2013-02-25 07:41:00,
2013-02-25 00:51:00,1.0,-3.0,-100.00,NE,40,0.0,4.0,85,0.00,,,-99.99,,2013-02-25 07:51:00,
2013-02-25 01:01:00,1.0,-2.0,-100.00,NNE,30,1.0,3.0,85,0.00,,,-99.99,,2013-02-25 08:01:00,
2013-02-25 01:11:00,2.0,-2.0,-100.00,WNW,290,1.0,4.0,85,0.00,,,-99.99,,2013-02-25 08:11:00,
2013-02-25 01:21:00,2.0,-2.0,-100.00,NW,305,1.0,7.0,84,0.00,,,-99.99,,2013-02-25 08:21:00,
2013-02-25 01:32:00,1.0,-2.0,-100.00,NNW,335,0.0,4.0,84,0.00,,,-99.99,,2013-02-25 08:32:00,
2013-02-25 01:41:00,1.0,-2.0,-100.00,West,260,1.0,3.0,85,0.00,,,-99.99,,2013-02-25 08:41:00,
2013-02-25 01:52:00,1.0,-2.0,-100.00,NW,325,0.0,2.0,85,0.00,,,-99.99,,2013-02-25 08:52:00,
2013-02-25 02:01:00,1.0,-2.0,-100.00,North,355,0.0,3.0,85,0.00,,,-99.99,,2013-02-25 09:01:00,
2013-02-25 02:12:00,1.0,-2.0,-100.00,NW,325,4.0,6.0,85,0.00,,,-99.99,,2013-02-25 09:12:00,
2013-02-25 02:21:00,1.0,-2.0,-100.00,WSW,255,1.0,6.0,85,0.00,,,-99.99,,2013-02-25 09:21:00,
2013-02-25 02:32:00,1.0,-2.0,-100.00,West,275,0.0,6.0,85,0.00,,,-99.99,,2013-02-25 09:32:00,
2013-02-25 02:42:00,1.0,-2.0,-100.00,NNW,335,1.0,4.0,85,0.00,,,-99.99,,2013-02-25 09:42:00,
2013-02-25 02:51:00,2.0,-2.0,-100.00,South,185,2.0,6.0,85,0.00,,,-99.99,,2013-02-25 09:51:00,
2013-02-25 03:01:00,2.0,-2.0,-100.00,West,280,2.0,6.0,84,0.00,,,-99.99,,2013-02-25 10:01:00,
2013-02-25 03:11:00,1.0,-2.0,-100.00,NNW,340,0.0,4.0,84,0.00,,,-99.99,,2013-02-25 10:11:00,
2013-02-25 03:21:00,1.0,-3.0,-100.00,SW,220,2.0,4.0,84,0.00,,,-99.99,,2013-02-25 10:21:00,
2013-02-25 03:32:00,1.0,-2.0,-100.00,NW,310,0.0,4.0,84,0.00,,,-99.99,,2013-02-25 10:32:00,
2013-02-25 03:42:00,1.0,-3.0,-100.00,SSW,200,2.0,4.0,84,0.00,,,-99.99,,2013-02-25 10:42:00,
2013-02-25 03:52:00,1.0,-2.0,-100.00,West,260,1.0,4.0,84,0.00,,,-99.99,,2013-02-25 10:52:00,
2013-02-25 04:01:00,1.0,-2.0,-100.00,WSW,240,1.0,4.0,84,0.00,,,-99.99,,2013-02-25 11:01:00,
2013-02-25 04:11:00,1.0,-2.0,-100.00,WNW,295,1.0,5.0,84,0.00,,,-99.99,,2013-02-25 11:11:00,
2013-02-25 04:21:00,2.0,-2.0,-100.00,WNW,295,2.0,5.0,84,0.00,,,-99.99,,2013-02-25 11:21:00,
2013-02-25 04:32:00,1.0,-2.0,-100.00,West,265,1.0,4.0,84,0.00,,,-99.99,,2013-02-25 11:32:00,
2013-02-25 04:42:00,1.0,-2.0,-100.00,SW,225,1.0,4.0,84,0.00,,,-99.99,,2013-02-25 11:42:00,
2013-02-25 04:52:00,1.0,-2.0,-100.00,West,280,2.0,3.0,84,0.00,,,-99.99,,2013-02-25 11:52:00,
2013-02-25 05:02:00,1.0,-2.0,-100.00,West,265,3.0,6.0,84,0.00,,,-99.99,,2013-02-25 12:02:00,
2013-02-25 05:11:00,2.0,-2.0,-100.00,West,260,5.0,7.0,84,0.00,,,-99.99,,2013-02-25 12:11:00,
2013-02-25 05:21:00,1.0,-2.0,-100.00,NW,305,3.0,6.0,84,0.00,,,-99.99,,2013-02-25 12:21:00,
2013-02-25 05:32:00,2.0,-2.0,-100.00,West,265,4.0,6.0,84,0.00,,,-99.99,,2013-02-25 12:32:00,
2013-02-25 05:42:00,2.0,-2.0,-100.00,NW,310,2.0,5.0,84,0.00,,,-99.99,,2013-02-25 12:42:00,
2013-02-25 05:53:00,2.0,-2.0,-100.00,NW,320,0.0,3.0,84,0.00,,,-99.99,,2013-02-25 12:53:00,
2013-02-25 06:02:00,1.0,-3.0,-100.00,WNW,290,1.0,1.0,84,0.00,,,-99.99,,2013-02-25 13:02:00,
2013-02-25 06:12:00,1.0,-3.0,-100.00,NW,320,0.0,2.0,84,0.00,,,-99.99,,2013-02-25 13:12:00,
2013-02-25 06:22:00,1.0,-2.0,-100.00,West,265,2.0,4.0,84,0.00,,,-99.99,,2013-02-25 13:22:00,
2013-02-25 06:32:00,2.0,-2.0,-100.00,NW,305,0.0,4.0,84,0.00,,,-99.99,,2013-02-25 13:32:00,
2013-02-25 06:42:00,1.0,-3.0,-100.00,NW,320,0.0,2.0,84,0.00,,,-99.99,,2013-02-25 13:42:00,
2013-02-25 06:52:00,0.0,-3.0,-100.00,NW,315,0.0,1.0,84,0.00,,,-99.99,,2013-02-25 13:52:00,
2013-02-25 07:03:00,0.0,-3.0,-100.00,NW,305,0.0,2.0,85,0.00,,,-99.99,,2013-02-25 14:03:00,
2013-02-25 07:17:00,1.0,-2.0,-100.00,NW,315,0.0,1.0,85,0.00,,,-99.99,,2013-02-25 14:17:00,
2013-02-25 07:32:00,1.0,-2.0,-100.00,West,270,1.0,3.0,85,0.00,,,-99.99,,2013-02-25 14:32:00,
2013-02-25 07:42:00,4.0,1.0,-100.00,SW,220,2.0,4.0,84,0.00,,,-99.99,,2013-02-25 14:42:00,
2013-02-25 07:52:00,7.0,2.0,-100.00,SSW,205,2.0,3.0,79,0.00,,,-99.99,,2013-02-25 14:52:00,
2013-02-25 08:02:00,8.0,3.0,-100.00,South,190,1.0,3.0,77,0.00,,,-99.99,,2013-02-25 15:02:00,
2013-02-25 08:11:00,11.0,4.0,-100.00,ENE,65,0.0,1.0,73,0.00,,,-99.99,,2013-02-25 15:11:00,
2013-02-25 08:21:00,13.0,4.0,-100.00,NNE,30,1.0,3.0,66,0.00,,,-99.99,,2013-02-25 15:21:00,
2013-02-25 08:32:00,14.0,4.0,-100.00,NNE,30,1.0,3.0,62,0.00,,,-99.99,,2013-02-25 15:32:00,
2013-02-25 08:41:00,15.0,3.0,-100.00,NE,40,1.0,3.0,58,0.00,,,-99.99,,2013-02-25 15:41:00,
2013-02-25 08:51:00,15.0,1.0,-100.00,NE,45,4.0,6.0,54,0.00,,,-99.99,,2013-02-25 15:51:00,
2013-02-25 09:02:00,16.0,2.0,-100.00,East,85,2.0,6.0,54,0.00,,,-99.99,,2013-02-25 16:02:00,
2013-02-25 09:11:00,18.0,3.0,-100.00,ENE,70,1.0,3.0,51,0.00,,,-99.99,,2013-02-25 16:11:00,
2013-02-25 09:21:00,20.0,4.0,-100.00,East,85,2.0,5.0,47,0.00,,,-99.99,,2013-02-25 16:21:00,
2013-02-25 09:32:00,20.0,3.0,-100.00,ESE,120,2.0,8.0,46,0.00,,,-99.99,,2013-02-25 16:32:00,
2013-02-25 09:42:00,22.0,4.0,-100.00,East,90,4.0,9.0,44,0.00,,,-99.99,,2013-02-25 16:42:00,
2013-02-25 09:51:00,23.0,4.0,-100.00,East,95,4.0,8.0,42,0.00,,,-99.99,,2013-02-25 16:51:00,
2013-02-25 10:01:00,22.0,2.0,-100.00,NE,50,3.0,7.0,41,0.00,,,-99.99,,2013-02-25 17:01:00,
2013-02-25 10:11:00,25.0,4.0,-100.00,ENE,75,4.0,9.0,40,0.00,,,-99.99,,2013-02-25 17:11:00,
2013-02-25 10:21:00,26.0,5.0,-100.00,East,90,4.0,11.0,39,0.00,,,-99.99,,2013-02-25 17:21:00,
2013-02-25 10:32:00,26.0,3.0,-100.00,South,180,2.0,9.0,36,0.00,,,-99.99,,2013-02-25 17:32:00,
2013-02-25 10:41:00,26.0,3.0,-100.00,East,95,6.0,12.0,35,0.00,,,-99.99,,2013-02-25 17:41:00,
2013-02-25 10:52:00,27.0,2.0,-100.00,North,0,2.0,9.0,34,0.00,,,-99.99,,2013-02-25 17:52:00,
2013-02-25 11:01:00,28.0,4.0,-100.00,East,90,4.0,8.0,34,0.00,,,-99.99,,2013-02-25 18:01:00,
2013-02-25 11:12:00,29.0,4.0,-100.00,SE,125,2.0,7.0,32,0.00,,,-99.99,,2013-02-25 18:12:00,
2013-02-25 11:21:00,29.0,3.0,-100.00,ENE,70,5.0,10.0,32,0.00,,,-99.99,,2013-02-25 18:21:00,
2013-02-25 11:32:00,30.0,4.0,-100.00,ESE,110,4.0,9.0,31,0.00,,,-99.99,,2013-02-25 18:32:00,
2013-02-25 11:42:00,31.0,4.0,-100.00,ESE,105,7.0,12.0,30,0.00,,,-99.99,,2013-02-25 18:42:00,
2013-02-25 11:51:00,32.0,4.0,-100.00,East,80,2.0,14.0,30,0.00,,,-99.99,,2013-02-25 18:51:00,
2013-02-25 12:01:00,32.0,4.0,-100.00,East,90,6.0,12.0,30,0.00,,,-99.99,,2013-02-25 19:01:00,
2013-02-25 12:11:00,31.0,3.0,-100.00,East,90,7.0,12.0,29,0.00,,,-99.99,,2013-02-25 19:11:00,
2013-02-25 12:21:00,31.0,3.0,-100.00,East,90,7.0,12.0,29,0.00,,,-99.99,,2013-02-25 19:21:00,
2013-02-25 12:32:00,33.0,4.0,-100.00,NW,325,2.0,9.0,28,0.00,,,-99.99,,2013-02-25 19:32:00,
2013-02-25 12:42:00,32.0,3.0,-100.00,South,175,4.0,9.0,29,0.00,,,-99.99,,2013-02-25 19:42:00,
2013-02-25 12:52:00,31.0,4.0,-100.00,SW,220,4.0,9.0,30,0.00,,,-99.99,,2013-02-25 19:52:00,
2013-02-25 13:01:00,30.0,4.0,-100.00,SSW,195,4.0,12.0,32,0.00,,,-99.99,,2013-02-25 20:01:00,
2013-02-25 13:11:00,29.0,4.0,-100.00,SW,215,7.0,14.0,34,0.00,,,-99.99,,2013-02-25 20:11:00,
2013-02-25 13:21:00,33.0,9.0,-100.00,SE,125,3.0,11.0,36,0.00,,,-99.99,,2013-02-25 20:21:00,
2013-02-25 13:32:00,33.0,9.0,-100.00,SE,135,2.0,9.0,35,0.00,,,-99.99,,2013-02-25 20:32:00,
2013-02-25 13:42:00,32.0,8.0,-100.00,SW,215,5.0,11.0,36,0.00,,,-99.99,,2013-02-25 20:42:00,
2013-02-25 13:52:00,32.0,8.0,-100.00,SW,215,7.0,9.0,35,0.00,,,-99.99,,2013-02-25 20:52:00,
2013-02-25 14:01:00,31.0,7.0,-100.00,South,190,6.0,11.0,36,0.00,,,-99.99,,2013-02-25 21:01:00,
2013-02-25 14:11:00,31.0,8.0,-100.00,South,190,6.0,10.0,37,0.00,,,-99.99,,2013-02-25 21:11:00,
2013-02-25 14:21:00,29.0,7.0,-100.00,South,190,4.0,11.0,38,0.00,,,-99.99,,2013-02-25 21:21:00,
2013-02-25 14:32:00,29.0,7.0,-100.00,WSW,250,7.0,14.0,39,0.00,,,-99.99,,2013-02-25 21:32:00,
2013-02-25 14:42:00,29.0,8.0,-100.00,WSW,240,4.0,11.0,39,0.00,,,-99.99,,2013-02-25 21:42:00,
2013-02-25 14:51:00,28.0,7.0,-100.00,SSW,200,7.0,14.0,40,0.00,,,-99.99,,2013-02-25 21:51:00,
2013-02-25 15:01:00,28.0,7.0,-100.00,South,175,4.0,14.0,40,0.00,,,-99.99,,2013-02-25 22:01:00,
2013-02-25 15:11:00,28.0,7.0,-100.00,SW,215,5.0,10.0,40,0.00,,,-99.99,,2013-02-25 22:11:00,
2013-02-25 15:21:00,28.0,8.0,-100.00,SW,225,6.0,9.0,41,0.00,,,-99.99,,2013-02-25 22:21:00,
2013-02-25 15:32:00,27.0,7.0,-100.00,SSW,205,7.0,14.0,41,0.00,,,-99.99,,2013-02-25 22:32:00,
2013-02-25 15:42:00,27.0,7.0,-100.00,SSW,210,6.0,11.0,41,0.00,,,-99.99,,2013-02-25 22:42:00,
2013-02-25 15:51:00,27.0,7.0,-100.00,SSE,150,3.0,12.0,42,0.00,,,-99.99,,2013-02-25 22:51:00,
2013-02-25 16:01:00,27.0,7.0,-100.00,SW,235,6.0,12.0,42,0.00,,,-99.99,,2013-02-25 23:01:00,
2013-02-25 16:11:00,26.0,6.0,-100.00,SW,220,8.0,13.0,43,0.00,,,-99.99,,2013-02-25 23:11:00,
2013-02-25 16:22:00,25.0,7.0,-100.00,SSW,205,7.0,12.0,44,0.00,,,-99.99,,2013-02-25 23:22:00,
2013-02-25 16:32:00,25.0,6.0,-100.00,SSW,200,7.0,11.0,44,0.00,,,-99.99,,2013-02-25 23:32:00,
2013-02-25 16:41:00,25.0,6.0,-100.00,South,190,4.0,11.0,44,0.00,,,-99.99,,2013-02-25 23:41:00,
2013-02-25 16:52:00,24.0,6.0,-100.00,SSW,210,6.0,12.0,45,0.00,,,-99.99,,2013-02-25 23:52:00,
2013-02-25 17:01:00,23.0,5.0,-100.00,SW,220,7.0,14.0,45,0.00,,,-99.99,,2013-02-26 00:01:00,
2013-02-25 17:12:00,23.0,5.0,-100.00,SW,215,7.0,13.0,46,0.00,,,-99.99,,2013-02-26 00:12:00,
2013-02-25 17:22:00,22.0,5.0,-100.00,SW,215,6.0,9.0,47,0.00,,,-99.99,,2013-02-26 00:22:00,
2013-02-25 17:32:00,20.0,4.0,-100.00,SW,230,6.0,11.0,48,0.00,,,-99.99,,2013-02-26 00:32:00,
2013-02-25 17:42:00,19.0,4.0,-100.00,SSW,210,6.0,9.0,50,0.00,,,-99.99,,2013-02-26 00:42:00,
2013-02-25 17:51:00,18.0,4.0,-100.00,SSW,200,6.0,9.0,53,0.00,,,-99.99,,2013-02-26 00:51:00,
2013-02-25 18:02:00,18.0,4.0,-100.00,SSW,205,4.0,10.0,54,0.00,,,-99.99,,2013-02-26 01:02:00,
2013-02-25 18:11:00,17.0,4.0,-100.00,SSW,200,6.0,9.0,57,0.00,,,-99.99,,2013-02-26 01:11:00,
2013-02-25 18:21:00,16.0,4.0,-100.00,SSW,210,7.0,12.0,59,0.00,,,-99.99,,2013-02-26 01:21:00,
2013-02-25 18:32:00,15.0,4.0,-100.00,SSW,205,7.0,12.0,61,0.00,,,-99.99,,2013-02-26 01:32:00,
2013-02-25 18:41:00,15.0,5.0,-100.00,SW,225,6.0,9.0,63,0.00,,,-99.99,,2013-02-26 01:41:00,
2013-02-25 18:51:00,15.0,5.0,-100.00,SSW,210,6.0,11.0,64,0.00,,,-99.99,,2013-02-26 01:51:00,
2013-02-25 19:01:00,15.0,5.0,-100.00,SSW,210,6.0,12.0,65,0.00,,,-99.99,,2013-02-26 02:01:00,
2013-02-25 19:11:00,14.0,5.0,-100.00,SW,225,6.0,11.0,66,0.00,,,-99.99,,2013-02-26 02:11:00,
2013-02-25 19:21:00,14.0,5.0,-100.00,SW,225,6.0,11.0,67,0.00,,,-99.99,,2013-02-26 02:21:00,
2013-02-25 19:32:00,14.0,5.0,-100.00,SW,220,6.0,10.0,67,0.00,,,-99.99,,2013-02-26 02:32:00,
2013-02-25 19:42:00,14.0,5.0,-100.00,SW,230,4.0,10.0,67,0.00,,,-99.99,,2013-02-26 02:42:00,
2013-02-25 19:52:00,14.0,6.0,-100.00,SSW,210,5.0,9.0,67,0.00,,,-99.99,,2013-02-26 02:52:00,
2013-02-25 20:02:00,14.0,6.0,-100.00,SW,220,7.0,10.0,68,0.00,,,-99.99,,2013-02-26 03:02:00,
2013-02-25 20:11:00,13.0,5.0,-100.00,WSW,245,5.0,11.0,69,0.00,,,-99.99,,2013-02-26 03:11:00,
2013-02-25 20:21:00,13.0,5.0,-100.00,SW,230,6.0,11.0,70,0.00,,,-99.99,,2013-02-26 03:21:00,
2013-02-25 20:32:00,12.0,5.0,-100.00,WSW,245,6.0,9.0,72,0.00,,,-99.99,,2013-02-26 03:32:00,
2013-02-25 20:42:00,12.0,5.0,-100.00,SW,230,4.0,10.0,73,0.00,,,-99.99,,2013-02-26 03:42:00,
2013-02-25 20:52:00,11.0,5.0,-100.00,WSW,250,6.0,9.0,74,0.00,,,-99.99,,2013-02-26 03:52:00,
2013-02-25 21:01:00,12.0,6.0,-100.00,SW,230,6.0,11.0,74,0.00,,,-99.99,,2013-02-26 04:01:00,
2013-02-25 21:11:00,12.0,6.0,-100.00,SW,235,6.0,12.0,74,0.00,,,-99.99,,2013-02-26 04:11:00,
2013-02-25 21:21:00,12.0,6.0,-100.00,WSW,245,6.0,12.0,75,0.00,,,-99.99,,2013-02-26 04:21:00,
2013-02-25 21:32:00,13.0,6.0,-100.00,West,265,4.0,12.0,74,0.00,,,-99.99,,2013-02-26 04:32:00,
2013-02-25 21:42:00,13.0,6.0,-100.00,SW,230,6.0,12.0,75,0.00,,,-99.99,,2013-02-26 04:42:00,
2013-02-25 21:51:00,12.0,6.0,-100.00,WSW,250,7.0,13.0,77,0.00,,,-99.99,,2013-02-26 04:51:00,
2013-02-25 22:01:00,11.0,6.0,-100.00,SW,230,6.0,10.0,77,0.00,,,-99.99,,2013-02-26 05:01:00,
2013-02-25 22:12:00,11.0,6.0,-100.00,SW,235,4.0,10.0,78,0.00,,,-99.99,,2013-02-26 05:12:00,
2013-02-25 22:22:00,11.0,6.0,-100.00,SW,235,6.0,9.0,78,0.00,,,-99.99,,2013-02-26 05:22:00,
2013-02-25 22:32:00,10.0,5.0,-100.00,SW,230,5.0,9.0,79,0.00,,,-99.99,,2013-02-26 05:32:00,
2013-02-25 22:43:00,10.0,5.0,-100.00,SW,235,4.0,9.0,80,0.00,,,-99.99,,2013-02-26 05:43:00,
2013-02-25 22:52:00,10.0,5.0,-100.00,West,260,4.0,10.0,82,0.00,,,-99.99,,2013-02-26 05:52:00,
2013-02-25 23:02:00,11.0,6.0,-100.00,WSW,250,5.0,9.0,82,0.00,,,-99.99,,2013-02-26 06:02:00,
2013-02-25 23:11:00,12.0,8.0,-100.00,West,260,4.0,9.0,82,0.00,,,-99.99,,2013-02-26 06:11:00,
2013-02-25 23:21:00,10.0,5.0,-100.00,WSW,240,4.0,9.0,82,0.00,,,-99.99,,2013-02-26 06:21:00,
2013-02-25 23:32:00,10.0,6.0,-100.00,WSW,245,2.0,7.0,83,0.00,,,-99.99,,2013-02-26 06:32:00,
2013-02-25 23:41:00,10.0,6.0,-100.00,WSW,250,6.0,8.0,84,0.00,,,-99.99,,2013-02-26 06:41:00,
2013-02-25 23:52:00,9.0,6.0,-100.00,SW,230,4.0,7.0,84,0.00,,,-99.99,,2013-02-26 06:52:00,